createdAt,value
2023-04-12T00:00:31.113Z,4.90
2023-04-12T00:02:59.545Z,2.45
2023-04-12T00:05:27.301Z,3.22
2023-04-12T00:07:55.394Z,3.30
2023-04-12T00:10:23.180Z,3.55
2023-04-12T00:12:50.544Z,3.75
2023-04-12T00:15:17.997Z,4.62
2023-04-12T00:17:46.607Z,3.97
2023-04-12T00:20:16.396Z,2.78
2023-04-12T00:22:43.785Z,3.85
2023-04-12T00:25:11.660Z,3.90
2023-04-12T00:27:39.339Z,2.53
2023-04-12T00:30:08.294Z,5.00
2023-04-12T00:32:36.187Z,5.12
2023-04-12T00:35:03.731Z,6.28
2023-04-12T00:37:31.203Z,3.95
2023-04-12T00:39:58.845Z,3.67
2023-04-12T00:42:26.281Z,3.78
2023-04-12T00:44:53.718Z,2.90
2023-04-12T00:47:21.549Z,4.12
2023-04-12T00:49:49.015Z,3.40
2023-04-12T00:52:18.027Z,6.10
2023-04-12T00:54:45.886Z,4.40
2023-04-12T00:57:13.403Z,3.80
2023-04-12T00:59:40.977Z,3.80
2023-04-12T01:02:09.345Z,3.65
2023-04-12T01:04:38.062Z,4.32
2023-04-12T01:07:22.285Z,5.03
2023-04-12T01:10:26.134Z,4.40
2023-04-12T01:13:33.137Z,3.53
2023-04-12T01:16:06.859Z,5.55
2023-04-12T01:18:40.881Z,4.80
2023-04-12T01:21:15.652Z,2.83
2023-04-12T01:23:58.717Z,3.10
2023-04-12T01:26:41.938Z,3.80
2023-04-12T01:31:52.139Z,6.35
2023-04-12T01:34:20.633Z,4.95
2023-04-12T01:36:49.283Z,5.37
2023-04-12T01:39:17.144Z,3.75
2023-04-12T01:41:48.861Z,4.22
2023-04-12T01:44:17.264Z,3.47
2023-04-12T01:46:48.917Z,4.60
2023-04-12T01:49:17.821Z,2.97
2023-04-12T01:52:23.469Z,5.55
2023-04-12T01:54:51.463Z,3.72
2023-04-12T01:57:19.236Z,6.37
2023-04-12T01:59:49.073Z,4.22
2023-04-12T02:02:16.914Z,6.25
2023-04-12T02:04:44.806Z,4.85
2023-04-12T02:07:13.625Z,3.28
2023-04-12T02:09:41.230Z,3.87
2023-04-12T02:12:09.330Z,3.75
2023-04-12T02:14:37.127Z,4.90
2023-04-12T02:17:05.574Z,5.68
2023-04-12T02:19:33.351Z,6.50
2023-04-12T02:22:02.211Z,6.93
2023-04-12T02:24:29.735Z,4.12
2023-04-12T02:26:59.124Z,4.80
2023-04-12T02:29:27.467Z,6.30
2023-04-12T02:31:55.105Z,5.65
2023-04-12T02:34:23.162Z,4.97
2023-04-12T02:36:51.037Z,4.12
2023-04-12T02:39:18.685Z,4.55
2023-04-12T02:41:46.984Z,5.62
2023-04-12T02:44:15.277Z,4.47
2023-04-12T02:46:43.547Z,4.30
2023-04-12T02:49:11.620Z,5.43
2023-04-12T02:51:39.866Z,4.10
2023-04-12T02:54:07.519Z,5.22
2023-04-12T02:56:36.084Z,4.53
2023-04-12T02:59:04.571Z,5.32
2023-04-12T03:01:33.923Z,4.35
2023-04-12T03:04:02.504Z,5.45
2023-04-12T03:06:32.082Z,4.97
2023-04-12T03:09:00.399Z,6.82
2023-04-12T03:11:28.010Z,5.60
2023-04-12T03:13:56.227Z,5.35
2023-04-12T03:16:29.617Z,5.15
2023-04-12T03:18:57.916Z,4.40
2023-04-12T03:21:26.257Z,5.80
2023-04-12T03:23:54.470Z,5.22
2023-04-12T03:26:22.719Z,5.00
2023-04-12T03:28:51.239Z,5.07
2023-04-12T03:31:21.494Z,6.65
2023-04-12T03:33:50.266Z,9.07
2023-04-12T03:36:18.041Z,5.22
2023-04-12T03:38:47.624Z,7.75
2023-04-12T03:41:15.906Z,6.47
2023-04-12T03:43:43.342Z,8.73
2023-04-12T03:46:11.766Z,8.68
2023-04-12T03:48:39.495Z,11.55
2023-04-12T03:51:11.984Z,14.52
2023-04-12T03:53:40.046Z,9.27
2023-04-12T03:56:08.602Z,10.23
2023-04-12T03:58:36.166Z,9.00
2023-04-12T04:01:06.062Z,8.25
2023-04-12T04:03:37.182Z,5.10
2023-04-12T04:06:05.488Z,5.35
2023-04-12T04:08:33.162Z,5.55
2023-04-12T04:11:01.036Z,6.60
2023-04-12T04:13:29.232Z,5.45
2023-04-12T04:16:02.805Z,6.05
2023-04-12T04:18:31.122Z,7.47
2023-04-12T04:20:58.784Z,5.62
2023-04-12T04:23:29.232Z,5.07
2023-04-12T04:25:57.789Z,5.50
2023-04-12T04:28:25.625Z,6.53
2023-04-12T04:30:55.849Z,7.03
2023-04-12T04:33:24.398Z,6.82
2023-04-12T04:35:52.870Z,4.90
2023-04-12T04:38:20.667Z,5.70
2023-04-12T04:40:53.338Z,4.05
2023-04-12T04:43:22.193Z,5.05
2023-04-12T04:45:54.520Z,4.85
2023-04-12T04:48:22.090Z,6.80
2023-04-12T04:50:51.641Z,3.75
2023-04-12T04:53:22.729Z,6.28
2023-04-12T04:55:57.801Z,6.93
2023-04-12T04:58:26.610Z,5.35
2023-04-12T05:00:57.627Z,8.70
2023-04-12T05:03:30.838Z,7.43
2023-04-12T05:06:00.355Z,5.72
2023-04-12T05:08:28.842Z,5.53
2023-04-12T05:10:57.314Z,6.57
2023-04-12T05:13:25.471Z,4.82
2023-04-12T05:15:52.878Z,5.07
2023-04-12T05:18:20.974Z,6.40
2023-04-12T05:20:48.883Z,4.87
2023-04-12T05:23:16.387Z,6.00
2023-04-12T05:25:46.920Z,5.95
2023-04-12T05:28:16.755Z,4.60
2023-04-12T05:30:45.155Z,3.28
2023-04-12T05:33:12.887Z,6.12
2023-04-12T05:35:43.146Z,4.37
2023-04-12T05:38:11.787Z,5.53
2023-04-12T05:40:39.528Z,4.95
2023-04-12T05:43:08.595Z,4.25
2023-04-12T05:45:36.284Z,4.78
2023-04-12T05:48:03.976Z,5.85
2023-04-12T05:50:31.907Z,4.40
2023-04-12T05:53:01.678Z,4.62
2023-04-12T05:55:30.025Z,5.35
2023-04-12T05:57:58.703Z,5.85
2023-04-12T06:00:26.702Z,4.97
2023-04-12T06:02:54.989Z,4.32
2023-04-12T06:05:22.845Z,4.47
2023-04-12T06:07:50.612Z,5.65
2023-04-12T06:10:19.254Z,3.47
2023-04-12T06:12:47.729Z,4.62
2023-04-12T06:15:15.560Z,4.10
2023-04-12T06:17:43.671Z,3.35
2023-04-12T06:20:12.352Z,4.68
2023-04-12T06:22:40.049Z,5.12
2023-04-12T06:25:08.364Z,13.07
2023-04-12T06:27:36.054Z,4.60
2023-04-12T06:30:03.780Z,4.15
2023-04-12T06:32:32.383Z,5.07
2023-04-12T06:35:00.540Z,6.32
2023-04-12T06:37:28.046Z,3.87
2023-04-12T06:39:55.723Z,4.78
2023-04-12T06:42:23.126Z,7.03
2023-04-12T06:44:50.528Z,6.78
2023-04-12T06:47:18.182Z,4.87
2023-04-12T06:49:45.590Z,4.82
2023-04-12T06:52:12.962Z,6.28
2023-04-12T06:54:40.710Z,5.60
2023-04-12T06:57:11.489Z,8.32
2023-04-12T06:59:39.301Z,5.70
2023-04-12T07:02:07.869Z,4.45
2023-04-12T07:04:35.376Z,6.30
2023-04-12T07:07:02.807Z,7.85
2023-04-12T07:09:33.479Z,6.57
2023-04-12T07:12:02.417Z,3.45
2023-04-12T07:14:30.126Z,5.97
2023-04-12T07:16:57.604Z,8.25
2023-04-12T07:19:25.010Z,4.65
2023-04-12T07:21:52.727Z,3.60
2023-04-12T07:24:20.114Z,3.28
2023-04-12T07:26:47.517Z,3.78
2023-04-12T07:29:15.856Z,5.37
2023-04-12T07:31:43.283Z,4.25
2023-04-12T07:34:10.847Z,3.22
2023-04-12T07:36:38.779Z,5.20
2023-04-12T07:39:06.198Z,4.40
2023-04-12T07:41:33.679Z,3.47
2023-04-12T07:44:01.422Z,4.22
2023-04-12T07:46:28.933Z,3.97
2023-04-12T07:48:56.617Z,3.10
2023-04-12T07:51:25.061Z,2.97
2023-04-12T07:53:52.560Z,4.93
2023-04-12T07:56:19.933Z,5.00
2023-04-12T07:58:48.218Z,4.25
2023-04-12T08:01:16.022Z,5.12
2023-04-12T08:03:43.909Z,4.25
2023-04-12T08:06:11.824Z,3.10
2023-04-12T08:08:39.244Z,4.97
2023-04-12T08:11:07.376Z,2.70
2023-04-12T08:13:35.527Z,4.72
2023-04-12T08:16:03.235Z,5.20
2023-04-12T08:18:31.273Z,2.95
2023-04-12T08:20:58.683Z,3.60
2023-04-12T08:23:26.155Z,7.87
2023-04-12T08:26:03.296Z,3.95
2023-04-12T08:28:31.229Z,3.05
2023-04-12T08:30:59.585Z,2.75
2023-04-12T08:33:27.511Z,2.37
2023-04-12T08:35:55.232Z,4.00
2023-04-12T08:38:28.012Z,2.12
2023-04-12T08:41:05.981Z,2.55
2023-04-12T08:43:34.580Z,2.12
2023-04-12T08:46:02.202Z,3.35
2023-04-12T08:48:29.748Z,2.58
2023-04-12T08:51:00.312Z,3.65
2023-04-12T08:53:27.724Z,5.80
2023-04-12T08:55:55.156Z,4.35
2023-04-12T08:58:23.599Z,3.87
2023-04-12T09:00:51.806Z,3.10
2023-04-12T09:03:19.374Z,2.55
2023-04-12T09:05:47.185Z,2.78
2023-04-12T09:08:14.705Z,2.50
2023-04-12T09:10:42.739Z,4.12
2023-04-12T09:13:10.625Z,3.00
2023-04-12T09:15:48.769Z,2.87
2023-04-12T09:18:17.467Z,2.80
2023-04-12T09:20:45.031Z,3.83
2023-04-12T09:23:24.116Z,4.72
2023-04-12T09:25:53.460Z,3.42
2023-04-12T09:28:26.920Z,4.57
2023-04-12T09:30:56.198Z,3.53
2023-04-12T09:33:33.640Z,4.93
2023-04-12T09:36:02.831Z,3.17
2023-04-12T09:38:31.104Z,2.47
2023-04-12T09:41:17.005Z,3.85
2023-04-12T09:43:46.085Z,5.18
2023-04-12T09:46:14.263Z,2.35
2023-04-12T09:48:43.514Z,3.92
2023-04-12T09:51:12.048Z,3.47
2023-04-12T09:53:41.505Z,3.50
2023-04-12T09:56:09.516Z,3.00
2023-04-12T09:58:38.835Z,4.90
2023-04-12T10:01:09.459Z,4.30
2023-04-12T10:03:38.847Z,1.87
2023-04-12T10:06:06.910Z,1.62
2023-04-12T10:08:34.485Z,2.83
2023-04-12T10:11:02.732Z,3.90
2023-04-12T10:13:32.834Z,1.98
2023-04-12T10:16:00.898Z,3.72
2023-04-12T10:18:28.954Z,2.72
2023-04-12T10:20:57.980Z,2.90
2023-04-12T10:23:26.120Z,2.40
2023-04-12T10:25:57.033Z,2.35
2023-04-12T10:28:25.355Z,3.00
2023-04-12T10:30:57.356Z,1.70
2023-04-12T10:33:27.373Z,4.00
2023-04-12T10:36:00.839Z,3.37
2023-04-12T10:38:34.590Z,3.00
2023-04-12T10:41:18.199Z,3.53
2023-04-12T10:46:39.261Z,3.75
2023-04-12T10:49:09.613Z,6.15
2023-04-12T10:51:37.603Z,3.47
2023-04-12T10:54:08.399Z,4.05
2023-04-12T10:56:40.711Z,2.62
2023-04-12T11:01:39.604Z,2.20
2023-04-12T11:04:07.413Z,3.25
2023-04-12T11:06:49.479Z,2.47
2023-04-12T11:09:29.541Z,1.85
2023-04-12T11:11:58.022Z,1.80
2023-04-12T11:14:31.209Z,3.30
2023-04-12T11:17:17.142Z,6.97
2023-04-12T11:19:52.243Z,2.33
2023-04-12T11:22:21.662Z,2.72
2023-04-12T11:24:51.313Z,2.65
2023-04-12T11:27:20.539Z,2.03
2023-04-12T11:29:49.718Z,2.10
2023-04-12T11:32:17.612Z,2.62
2023-04-12T11:34:47.238Z,3.05
2023-04-12T11:37:15.162Z,1.77
2023-04-12T11:39:43.813Z,3.05
2023-04-12T11:42:16.077Z,2.28
2023-04-12T11:44:56.429Z,4.32
2023-04-12T11:47:26.017Z,1.67
2023-04-12T11:49:58.345Z,2.62
2023-04-12T11:55:01.319Z,2.12
2023-04-12T11:57:29.290Z,4.18
2023-04-12T11:59:59.150Z,2.97
2023-04-12T12:02:30.241Z,1.95
2023-04-12T12:04:59.932Z,3.40
2023-04-12T12:07:27.875Z,3.58
2023-04-12T12:09:55.794Z,3.12
2023-04-12T12:12:24.125Z,2.90
2023-04-12T12:14:51.758Z,2.83
2023-04-12T12:17:19.464Z,4.10
2023-04-12T12:19:47.198Z,4.53
2023-04-12T12:22:19.304Z,3.62
2023-04-12T12:24:49.981Z,2.92
2023-04-12T12:27:37.860Z,2.47
2023-04-12T12:30:10.121Z,2.58
2023-04-12T12:32:39.413Z,2.70
2023-04-12T12:35:13.944Z,4.93
2023-04-12T12:37:53.251Z,2.58
2023-04-12T12:40:30.448Z,1.70
2023-04-12T12:42:58.195Z,4.03
2023-04-12T12:45:27.573Z,2.20
2023-04-12T12:47:56.044Z,1.90
2023-04-12T12:50:25.298Z,4.55
2023-04-12T12:52:53.715Z,3.42
2023-04-12T12:55:22.982Z,1.25
2023-04-12T12:58:07.449Z,3.10
2023-04-12T13:00:36.603Z,2.00
2023-04-12T13:03:04.770Z,3.37
2023-04-12T13:05:32.595Z,7.37
2023-04-12T13:08:00.402Z,4.28
2023-04-12T13:10:27.875Z,5.37
2023-04-12T13:12:55.278Z,3.28
2023-04-12T13:15:24.542Z,1.80
2023-04-12T13:17:53.084Z,3.17
2023-04-12T13:20:23.832Z,3.22
2023-04-12T13:22:54.321Z,2.03
2023-04-12T13:25:21.848Z,2.78
2023-04-12T13:27:49.598Z,1.77
2023-04-12T13:30:20.463Z,4.22
2023-04-12T13:32:47.914Z,3.67
2023-04-12T13:35:15.453Z,3.67
2023-04-12T13:37:43.178Z,4.07
2023-04-12T13:40:10.962Z,3.30
2023-04-12T13:42:38.653Z,3.22
2023-04-12T13:45:07.621Z,3.58
2023-04-12T13:47:35.410Z,3.87
2023-04-12T13:50:02.908Z,2.72
2023-04-12T13:52:30.930Z,2.92
2023-04-12T13:54:59.618Z,13.25
2023-04-12T13:57:27.084Z,3.97
2023-04-12T13:59:54.788Z,3.90
2023-04-12T14:02:22.477Z,2.17
2023-04-12T14:04:52.629Z,2.30
2023-04-12T14:07:20.119Z,3.33
2023-04-12T14:09:48.605Z,4.00
2023-04-12T14:12:16.540Z,3.70
2023-04-12T14:14:44.159Z,2.42
2023-04-12T14:17:11.821Z,3.20
2023-04-12T14:19:39.820Z,2.40
2023-04-12T14:22:07.178Z,1.95
2023-04-12T14:24:34.573Z,2.45
2023-04-12T14:27:02.475Z,2.55
2023-04-12T14:29:29.937Z,4.20
2023-04-12T14:31:57.379Z,2.83
2023-04-12T14:34:25.130Z,4.43
2023-04-12T14:36:52.467Z,2.05
2023-04-12T14:39:20.110Z,6.10
2023-04-12T14:41:47.800Z,3.97
2023-04-12T14:44:15.642Z,2.42
2023-04-12T14:46:44.150Z,4.18
2023-04-12T14:49:11.915Z,2.55
2023-04-12T14:51:39.318Z,4.03
2023-04-12T14:54:06.722Z,3.45
2023-04-12T14:56:42.242Z,4.40
2023-04-12T14:59:13.397Z,3.28
2023-04-12T15:01:41.714Z,3.78
2023-04-12T15:04:09.664Z,3.12
2023-04-12T15:06:42.357Z,4.03
2023-04-12T15:09:10.305Z,2.67
2023-04-12T15:11:38.239Z,2.12
2023-04-12T15:14:09.151Z,3.20
2023-04-12T15:16:38.196Z,3.60
2023-04-12T15:19:13.105Z,4.87
2023-04-12T15:21:44.178Z,4.97
2023-04-12T15:24:11.630Z,3.78
2023-04-12T15:26:39.004Z,3.85
2023-04-12T15:29:08.480Z,5.35
2023-04-12T15:31:35.917Z,2.45
2023-04-12T15:34:03.375Z,3.33
2023-04-12T15:36:36.404Z,3.53
2023-04-12T15:39:04.931Z,2.85
2023-04-12T15:41:38.887Z,2.55
2023-04-12T15:44:07.751Z,4.80
2023-04-12T15:46:36.289Z,4.32
2023-04-12T15:49:04.184Z,2.80
2023-04-12T15:51:32.400Z,3.75
2023-04-12T15:54:00.551Z,3.15
2023-04-12T15:56:29.685Z,4.82
2023-04-12T15:58:57.982Z,2.97
2023-04-12T16:01:25.906Z,2.20
2023-04-12T16:03:54.015Z,4.70
2023-04-12T16:06:21.699Z,5.37
2023-04-12T16:08:51.525Z,3.53
2023-04-12T16:11:21.275Z,3.97
2023-04-12T16:13:49.762Z,2.65
2023-04-12T16:16:18.573Z,5.03
2023-04-12T16:18:46.811Z,4.10
2023-04-12T16:21:19.620Z,4.25
2023-04-12T16:23:48.384Z,3.47
2023-04-12T16:26:21.689Z,2.55
2023-04-12T16:28:52.854Z,5.12
2023-04-12T16:31:21.199Z,3.33
2023-04-12T16:33:49.677Z,3.65
2023-04-12T16:36:17.981Z,3.53
2023-04-12T16:38:45.796Z,3.50
2023-04-12T16:41:13.373Z,3.85
2023-04-12T16:43:42.703Z,3.70
2023-04-12T16:46:12.552Z,2.67
2023-04-12T16:48:41.270Z,3.83
2023-04-12T16:51:09.094Z,6.18
2023-04-12T16:53:36.661Z,2.45
2023-04-12T16:56:04.681Z,4.22
2023-04-12T16:58:33.346Z,4.22
2023-04-12T17:01:01.860Z,4.07
2023-04-12T17:03:30.218Z,2.78
2023-04-12T17:05:58.187Z,2.90
2023-04-12T17:08:25.898Z,4.00
2023-04-12T17:10:54.395Z,4.95
2023-04-12T17:13:22.088Z,3.67
2023-04-12T17:15:49.597Z,4.15
2023-04-12T17:18:17.069Z,5.72
2023-04-12T17:20:45.338Z,7.50
2023-04-12T17:23:13.536Z,7.32
2023-04-12T17:25:41.888Z,8.73
2023-04-12T17:28:09.677Z,8.35
2023-04-12T17:30:37.148Z,8.65
2023-04-12T17:33:05.062Z,8.90
2023-04-12T17:35:32.789Z,7.75
2023-04-12T17:38:00.232Z,7.95
2023-04-12T17:40:27.594Z,23.05
2023-04-12T17:42:55.320Z,21.87
2023-04-12T17:45:25.794Z,21.17
2023-04-12T17:47:54.660Z,19.77
2023-04-12T17:50:22.537Z,19.62
2023-04-12T17:52:50.425Z,21.60
2023-04-12T17:55:23.165Z,18.50
2023-04-12T17:57:51.075Z,21.30
2023-04-12T18:00:20.207Z,24.52
2023-04-12T18:02:47.776Z,20.23
2023-04-12T18:05:15.598Z,17.98
2023-04-12T18:07:43.150Z,22.13
2023-04-12T18:10:13.059Z,23.70
2023-04-12T18:12:41.184Z,20.27
2023-04-12T18:15:09.227Z,22.10
2023-04-12T18:17:36.901Z,22.67
2023-04-12T18:20:09.762Z,18.60
2023-04-12T18:22:38.001Z,18.62
2023-04-12T18:25:07.578Z,25.83
2023-04-12T18:27:35.195Z,36.38
2023-04-12T18:30:03.488Z,43.70
2023-04-12T18:32:31.524Z,41.72
2023-04-12T18:34:59.010Z,47.00
2023-04-12T18:37:27.120Z,61.15
2023-04-12T18:39:55.422Z,76.15
2023-04-12T18:42:22.982Z,109.03
2023-04-12T18:44:51.224Z,115.10
2023-04-12T18:47:18.988Z,128.00
2023-04-12T18:49:46.403Z,140.60
2023-04-12T18:52:13.847Z,130.70
2023-04-12T18:54:41.709Z,131.45
2023-04-12T18:57:09.212Z,117.30
2023-04-12T18:59:36.703Z,127.85
2023-04-12T19:02:04.549Z,98.85
2023-04-12T19:04:32.224Z,78.28
2023-04-12T19:06:59.601Z,64.40
2023-04-12T19:09:27.335Z,70.78
2023-04-12T19:11:56.287Z,80.93
2023-04-12T19:14:25.223Z,77.50
2023-04-12T19:16:53.072Z,75.32
2023-04-12T19:19:20.834Z,66.25
2023-04-12T19:21:48.243Z,67.30
2023-04-12T19:24:16.207Z,56.55
2023-04-12T19:26:47.073Z,52.30
2023-04-12T19:29:19.589Z,44.97
2023-04-12T19:31:47.662Z,37.78
2023-04-12T19:34:18.201Z,32.88
2023-04-12T19:36:45.804Z,31.35
2023-04-12T19:39:13.595Z,28.77
2023-04-12T19:41:41.091Z,30.88
2023-04-12T19:44:08.692Z,35.10
2023-04-12T19:46:38.786Z,32.63
2023-04-12T19:49:06.714Z,27.60
2023-04-12T19:51:34.669Z,32.75
2023-04-12T19:54:02.889Z,24.55
2023-04-12T19:56:31.378Z,20.08
2023-04-12T19:58:59.940Z,18.33
2023-04-12T20:01:27.962Z,20.58
2023-04-12T20:03:55.691Z,19.42
2023-04-12T20:06:23.229Z,21.08
2023-04-12T20:08:51.209Z,17.67
2023-04-12T20:11:18.907Z,20.45
2023-04-12T20:13:46.619Z,19.83
2023-04-12T20:16:14.136Z,21.73
2023-04-12T20:18:42.086Z,21.05
2023-04-12T20:21:10.250Z,23.67
2023-04-12T20:23:37.980Z,18.30
2023-04-12T20:26:05.680Z,17.87
2023-04-12T20:28:33.118Z,16.10
2023-04-12T20:31:00.767Z,19.30
2023-04-12T20:33:29.303Z,17.45
2023-04-12T20:35:56.665Z,15.82
2023-04-12T20:38:24.204Z,14.52
2023-04-12T20:40:52.334Z,13.35
2023-04-12T20:43:20.323Z,12.23
2023-04-12T20:45:48.780Z,12.05
2023-04-12T20:48:18.348Z,10.48
2023-04-12T20:50:46.596Z,10.05
2023-04-12T20:53:15.773Z,11.15
2023-04-12T20:55:46.488Z,11.85
2023-04-12T20:58:14.464Z,9.90
2023-04-12T21:00:41.913Z,12.50
2023-04-12T21:03:10.880Z,13.55
2023-04-12T21:05:38.706Z,15.15
2023-04-12T21:08:07.568Z,22.17
2023-04-12T21:10:35.308Z,27.40
2023-04-12T21:13:03.023Z,44.72
2023-04-12T21:15:31.834Z,67.75
2023-04-12T21:17:59.594Z,71.40
2023-04-12T21:20:27.363Z,68.70
2023-04-12T21:22:54.827Z,51.40
2023-04-12T21:25:22.851Z,53.87
2023-04-12T21:27:50.429Z,51.78
2023-04-12T21:30:17.808Z,48.42
2023-04-12T21:32:45.559Z,45.08
2023-04-12T21:35:13.635Z,53.95
2023-04-12T21:37:41.002Z,38.85
2023-04-12T21:40:12.659Z,43.38
2023-04-12T21:42:40.768Z,52.03
2023-04-12T21:45:09.483Z,47.75
2023-04-12T21:47:39.464Z,41.97
2023-04-12T21:50:08.503Z,39.78
2023-04-12T21:52:37.009Z,39.03
2023-04-12T21:55:05.738Z,42.35
2023-04-12T21:57:34.191Z,55.50
2023-04-12T22:00:05.701Z,54.13
2023-04-12T22:02:39.577Z,59.05
2023-04-12T22:05:07.676Z,64.95
2023-04-12T22:07:35.291Z,60.28
2023-04-12T22:10:02.924Z,53.17
2023-04-12T22:12:33.758Z,61.03
2023-04-12T22:15:01.116Z,80.00
2023-04-12T22:17:29.947Z,78.80
2023-04-12T22:19:58.165Z,66.43
2023-04-12T22:22:29.116Z,61.83
2023-04-12T22:24:56.516Z,61.40
2023-04-12T22:27:26.472Z,53.85
2023-04-12T22:29:54.064Z,39.80
2023-04-12T22:32:21.949Z,34.60
2023-04-12T22:34:57.832Z,33.03
2023-04-12T22:40:06.437Z,31.02
2023-04-12T22:42:33.804Z,34.20
2023-04-12T22:45:02.462Z,35.78
2023-04-12T22:47:30.377Z,27.77
2023-04-12T22:50:01.434Z,28.62
2023-04-12T22:52:32.040Z,21.05
2023-04-12T22:54:59.450Z,18.87
2023-04-12T22:57:27.413Z,14.73
2023-04-12T22:59:55.113Z,12.40
2023-04-12T23:02:22.582Z,9.65
2023-04-12T23:04:51.558Z,11.15
2023-04-12T23:07:19.287Z,12.07
2023-04-12T23:09:46.642Z,13.02
2023-04-12T23:12:14.400Z,12.55
2023-04-12T23:14:42.067Z,14.95
2023-04-12T23:17:09.452Z,13.38
2023-04-12T23:19:36.891Z,11.80
2023-04-12T23:22:05.106Z,11.70
2023-04-12T23:24:32.502Z,11.25
2023-04-12T23:27:00.345Z,10.45
2023-04-12T23:29:28.044Z,13.25
2023-04-12T23:31:55.586Z,8.57
2023-04-12T23:34:23.059Z,11.23
2023-04-12T23:36:50.743Z,13.45
2023-04-12T23:39:18.292Z,15.75
2023-04-12T23:41:46.593Z,9.68
2023-04-12T23:44:14.293Z,12.55
2023-04-12T23:46:41.757Z,11.60
2023-04-12T23:49:09.194Z,14.32
2023-04-12T23:51:37.069Z,13.45
2023-04-12T23:54:04.492Z,11.98
2023-04-12T23:56:32.061Z,11.95
2023-04-12T23:58:59.861Z,11.77
